Time;durP1;ratioP1;P1;durP2;ratioP2;P2;SDS_P1;SDS_P2;PMS_P1;PMS_P2;Temp;Humidity;BMP_temperature;BMP_pressure;BME280_temperature;BME280_humidity;BME280_pressure;Samples;Min_cycle;Max_cycle;Signal;HPM_P1;HPM_P2
2022/05/10 00:01:37;;;;;;;13.38;7.82;;;16.90;92.60;;;;;;7336490;19;107424;-88
2022/05/10 00:04:08;;;;;;;10.32;7.82;;;16.90;92.90;;;;;;7335506;19;107743;-88
2022/05/10 00:06:39;;;;;;;10.95;7.70;;;16.80;92.90;;;;;;7335304;19;107957;-88
2022/05/10 00:09:07;;;;;;;9.70;7.00;;;16.80;93.10;;;;;;7335929;19;108189;-88
2022/05/10 00:11:35;;;;;;;13.30;8.48;;;16.80;92.90;;;;;;7332490;19;109068;-88
2022/05/10 00:14:04;;;;;;;11.98;8.15;;;16.80;93.20;;;;;;7337729;19;108254;-88
2022/05/10 00:16:35;;;;;;;13.63;7.93;;;16.70;93.30;;;;;;7337738;19;107675;-88
2022/05/10 00:19:02;;;;;;;14.57;8.98;;;16.60;93.50;;;;;;7347162;19;108689;-88
2022/05/10 00:21:29;;;;;;;12.57;8.35;;;16.50;93.70;;;;;;7342049;19;108596;-87
2022/05/10 00:23:56;;;;;;;17.38;8.48;;;16.50;93.60;;;;;;7342431;19;109334;-89
2022/05/10 00:26:24;;;;;;;14.95;9.23;;;16.50;93.80;;;;;;7343510;19;108555;-87
2022/05/10 00:28:51;;;;;;;18.42;8.55;;;16.40;94.10;;;;;;7342033;19;107761;-87
2022/05/10 00:31:18;;;;;;;9.07;8.00;;;16.40;94.20;;;;;;7345315;19;108959;-88
2022/05/10 00:33:45;;;;;;;11.95;9.07;;;16.40;94.20;;;;;;7346107;19;107945;-90
2022/05/10 00:36:22;;;;;;;12.10;8.55;;;16.40;94.40;;;;;;7349315;19;108320;-89
2022/05/10 00:38:50;;;;;;;15.05;8.65;;;16.30;94.40;;;;;;7347153;19;107350;-90
2022/05/10 00:41:39;;;;;;;13.38;9.55;;;16.30;94.60;;;;;;7358076;19;108025;-91
2022/05/10 00:44:16;;;;;;;14.07;8.85;;;16.30;94.50;;;;;;7352612;19;108020;-90
2022/05/10 00:46:45;;;;;;;;;;;16.20;94.70;;;;;;7355201;19;109469;-90
2022/05/10 00:49:21;;;;;;;16.63;9.32;;;16.10;94.80;;;;;;7357264;19;108273;-89
2022/05/10 00:51:57;;;;;;;13.43;9.15;;;16.10;95.10;;;;;;7350037;19;108177;-90
2022/05/10 00:54:53;;;;;;;13.35;9.65;;;16.00;95.20;;;;;;7354742;19;108449;-91
2022/05/10 00:57:27;;;;;;;13.25;9.15;;;16.00;95.40;;;;;;7352153;19;108193;-89
2022/05/10 01:00:03;;;;;;;13.45;9.68;;;15.90;95.80;;;;;;7352510;19;108469;-90
2022/05/10 01:02:33;;;;;;;12.05;9.25;;;15.90;95.80;;;;;;7351684;19;110943;-90
2022/05/10 01:05:11;;;;;;;14.52;8.75;;;15.90;95.80;;;;;;7359818;19;108297;-91
2022/05/10 01:07:44;;;;;;;;;;;15.90;95.70;;;;;;7353518;19;108514;-90
2022/05/10 01:10:21;;;;;;;14.55;9.30;;;15.80;95.60;;;;;;7354178;19;108125;-91
2022/05/10 01:13:03;;;;;;;;;;;15.80;95.90;;;;;;7356961;19;108942;-91
2022/05/10 01:15:32;;;;;;;11.85;7.97;;;15.70;95.90;;;;;;7355938;19;108196;-90
2022/05/10 01:17:59;;;;;;;13.35;9.88;;;15.70;96.10;;;;;;7347316;19;108234;-91
2022/05/10 01:20:39;;;;;;;21.42;10.55;;;15.70;96.10;;;;;;7348146;19;111224;-91
2022/05/10 01:23:30;;;;;;;15.18;9.50;;;15.70;96.40;;;;;;7339796;19;111077;-90
2022/05/10 01:26:06;;;;;;;12.65;9.20;;;15.70;96.60;;;;;;7339768;19;107902;-92
2022/05/10 01:28:40;;;;;;;17.77;10.05;;;15.70;96.80;;;;;;7343606;19;109625;-91
2022/05/10 01:31:14;;;;;;;16.88;10.55;;;15.70;96.90;;;;;;7339435;19;112857;-91
2022/05/10 01:33:52;;;;;;;15.32;10.57;;;15.70;97.00;;;;;;7343658;19;110547;-90
2022/05/10 01:36:45;;;;;;;14.80;9.45;;;15.70;97.10;;;;;;7341380;19;111568;-92
2022/05/10 01:39:30;;;;;;;17.58;9.73;;;15.60;97.00;;;;;;7342966;19;107724;-90
2022/05/10 01:42:10;;;;;;;13.35;10.32;;;15.60;97.10;;;;;;7346513;19;109437;-92
2022/05/10 01:45:02;;;;;;;13.90;9.75;;;15.60;97.30;;;;;;7341653;19;110379;-91
2022/05/10 01:47:31;;;;;;;16.30;10.30;;;15.60;97.40;;;;;;7345610;19;107614;-91
2022/05/10 01:50:20;;;;;;;11.77;9.65;;;15.50;97.60;;;;;;7340300;19;111011;-91
2022/05/10 01:53:01;;;;;;;10.27;9.23;;;15.50;97.70;;;;;;7348271;19;106930;-92
2022/05/10 01:55:35;;;;;;;18.70;11.35;;;15.50;97.80;;;;;;7342450;19;109197;-91
2022/05/10 01:58:12;;;;;;;13.77;10.23;;;15.40;98.00;;;;;;7343824;19;110899;-91
2022/05/10 02:00:41;;;;;;;;;;;15.40;98.10;;;;;;7344307;19;112112;-92
2022/05/10 02:03:17;;;;;;;14.32;10.50;;;15.40;98.00;;;;;;7350568;19;109371;-91
2022/05/10 02:06:14;;;;;;;15.32;10.90;;;15.40;98.00;;;;;;7340473;19;110531;-91
2022/05/10 02:09:02;;;;;;;18.27;11.52;;;15.40;98.20;;;;;;7342694;19;112134;-92
2022/05/10 02:11:34;;;;;;;16.33;11.25;;;15.40;98.20;;;;;;7339802;19;110225;-91
2022/05/10 02:14:10;;;;;;;14.77;10.20;;;15.40;98.20;;;;;;7348465;19;112143;-91
2022/05/10 02:16:51;;;;;;;12.13;10.38;;;15.40;98.20;;;;;;7343395;19;112227;-91
2022/05/10 02:19:40;;;;;;;17.50;12.13;;;15.40;98.40;;;;;;7344525;19;111766;-91
2022/05/10 02:22:14;;;;;;;14.57;10.43;;;15.40;98.50;;;;;;7338361;19;112797;-91
2022/05/10 02:24:49;;;;;;;18.83;12.57;;;15.40;98.60;;;;;;7342066;19;110969;-90
2022/05/10 02:27:20;;;;;;;21.67;12.60;;;15.40;98.80;;;;;;7341323;19;111560;-91
2022/05/10 02:29:52;;;;;;;18.83;11.15;;;15.40;98.80;;;;;;7336682;19;112276;-90
2022/05/10 02:35:10;;;;;;;23.20;11.75;;;15.30;99.20;;;;;;7342618;19;111769;-90
2022/05/10 02:37:37;;;;;;;15.75;11.55;;;15.30;98.90;;;;;;7347166;19;111199;-91
2022/05/10 02:40:06;;;;;;;17.48;11.35;;;15.30;99.00;;;;;;7342646;19;112934;-90
2022/05/10 02:42:34;;;;;;;14.35;11.68;;;15.30;99.10;;;;;;7342878;19;112085;-91
2022/05/10 02:45:03;;;;;;;15.45;11.43;;;15.30;99.20;;;;;;7340671;19;110574;-91
2022/05/10 02:47:36;;;;;;;13.48;10.70;;;15.30;99.10;;;;;;7340605;19;113944;-92
2022/05/10 02:50:17;;;;;;;18.35;11.27;;;15.30;98.90;;;;;;7340408;19;111037;-91
2022/05/10 02:52:44;;;;;;;17.65;12.10;;;15.30;99.10;;;;;;7339206;19;110056;-91
2022/05/10 02:55:19;;;;;;;17.60;10.85;;;15.30;99.00;;;;;;7339783;19;111461;-91
2022/05/10 02:57:50;;;;;;;16.88;11.98;;;15.30;99.00;;;;;;7339637;19;111990;-91
2022/05/10 03:00:19;;;;;;;16.48;12.18;;;15.30;99.20;;;;;;7342892;19;111102;-90
2022/05/10 03:02:51;;;;;;;15.05;12.15;;;15.30;99.30;;;;;;7340972;19;115456;-91
2022/05/10 03:05:18;;;;;;;15.43;12.52;;;15.30;99.30;;;;;;7340014;19;110355;-92
2022/05/10 03:07:45;;;;;;;14.18;11.48;;;15.30;99.40;;;;;;7339267;19;111275;-90
2022/05/10 03:10:12;;;;;;;16.90;11.20;;;15.30;99.50;;;;;;7339233;19;111707;-90
2022/05/10 03:12:40;;;;;;;15.68;12.38;;;15.30;99.40;;;;;;7339117;19;112539;-91
2022/05/10 03:15:07;;;;;;;15.15;12.13;;;15.30;99.50;;;;;;7337965;19;111648;-90
2022/05/10 03:17:34;;;;;;;23.27;13.40;;;15.40;99.60;;;;;;7338370;19;111991;-90
2022/05/10 03:20:03;;;;;;;19.60;13.43;;;15.30;99.70;;;;;;7336349;19;110595;-91
2022/05/10 03:22:31;;;;;;;21.02;12.85;;;15.40;99.80;;;;;;7345213;19;111619;-91
2022/05/10 03:24:58;;;;;;;24.15;13.90;;;15.40;99.80;;;;;;7338639;19;110461;-91
2022/05/10 03:27:27;;;;;;;18.25;14.23;;;15.40;99.80;;;;;;7339921;19;111959;-90
2022/05/10 03:29:54;;;;;;;21.92;13.23;;;15.40;99.90;;;;;;7338493;19;111038;-90
2022/05/10 03:32:21;;;;;;;20.25;13.63;;;15.40;99.90;;;;;;7339383;19;110008;-90
2022/05/10 03:34:54;;;;;;;17.98;12.75;;;15.40;99.90;;;;;;7339866;19;112311;-91
2022/05/10 03:37:27;;;;;;;20.30;12.80;;;15.40;99.90;;;;;;7340003;19;114203;-91
2022/05/10 03:39:54;;;;;;;16.10;12.98;;;15.40;99.80;;;;;;7338996;19;111729;-90
2022/05/10 03:42:22;;;;;;;23.50;14.30;;;15.40;99.90;;;;;;7340057;19;111270;-91
2022/05/10 03:44:52;;;;;;;21.25;14.02;;;15.40;99.90;;;;;;7343974;19;112269;-91
2022/05/10 03:47:23;;;;;;;20.52;14.15;;;15.50;99.90;;;;;;7340465;19;110763;-91
2022/05/10 03:49:50;;;;;;;17.23;12.90;;;15.50;99.90;;;;;;7335965;19;111213;-91
2022/05/10 03:52:18;;;;;;;23.08;14.38;;;15.50;99.90;;;;;;7336912;19;112505;-91
2022/05/10 03:54:45;;;;;;;19.67;14.52;;;15.50;99.90;;;;;;7338656;19;110491;-91
2022/05/10 03:57:12;;;;;;;21.58;14.88;;;15.50;99.90;;;;;;7339304;19;112091;-91
2022/05/10 03:59:42;;;;;;;24.27;15.60;;;15.50;99.90;;;;;;7338777;19;112575;-91
2022/05/10 04:02:11;;;;;;;24.90;15.38;;;15.50;99.90;;;;;;7340020;19;112786;-91
2022/05/10 04:04:38;;;;;;;25.10;14.90;;;15.50;99.90;;;;;;7345950;19;111834;-90
2022/05/10 04:07:06;;;;;;;24.27;15.30;;;15.60;99.90;;;;;;7339439;19;111439;-90
2022/05/10 04:09:34;;;;;;;28.92;16.60;;;15.60;99.90;;;;;;7336015;19;111031;-92
2022/05/10 04:12:01;;;;;;;24.33;14.90;;;15.60;99.90;;;;;;7337383;19;110548;-90
2022/05/10 04:14:28;;;;;;;26.25;15.27;;;15.60;99.90;;;;;;7340166;19;111611;-91
2022/05/10 04:16:55;;;;;;;28.85;15.55;;;15.60;99.90;;;;;;7343337;19;112180;-91
2022/05/10 04:19:24;;;;;;;29.85;16.15;;;15.70;99.90;;;;;;7346240;19;109994;-90
2022/05/10 04:21:51;;;;;;;30.88;16.33;;;15.70;99.90;;;;;;7345649;19;112705;-90
2022/05/10 04:24:18;;;;;;;22.00;15.75;;;15.70;99.90;;;;;;7346558;19;111074;-91
2022/05/10 04:26:47;;;;;;;24.70;16.02;;;15.70;99.90;;;;;;7348009;19;110549;-91
2022/05/10 04:29:14;;;;;;;24.40;15.23;;;15.70;99.90;;;;;;7343479;19;111138;-91
2022/05/10 04:31:41;;;;;;;26.65;15.05;;;15.70;99.90;;;;;;7343664;19;109980;-91
2022/05/10 04:34:08;;;;;;;29.58;15.73;;;15.80;99.90;;;;;;7345520;19;110733;-91
2022/05/10 04:36:35;;;;;;;23.98;15.75;;;15.80;99.90;;;;;;7342609;19;111811;-90
2022/05/10 04:39:03;;;;;;;25.40;15.38;;;15.80;99.90;;;;;;7346258;19;112747;-91
2022/05/10 04:41:34;;;;;;;29.38;14.90;;;15.80;99.90;;;;;;7345021;19;110250;-91
2022/05/10 04:44:01;;;;;;;27.60;16.23;;;15.80;99.90;;;;;;7345267;19;112079;-91
2022/05/10 04:46:30;;;;;;;23.38;14.40;;;15.80;99.90;;;;;;7346401;19;110904;-91
2022/05/10 04:48:58;;;;;;;22.38;14.40;;;15.90;99.90;;;;;;7348928;19;111926;-91
2022/05/10 04:51:25;;;;;;;22.17;15.23;;;15.90;99.90;;;;;;7343808;19;110682;-91
2022/05/10 04:53:53;;;;;;;24.00;14.48;;;15.90;99.90;;;;;;7345396;19;111570;-91
2022/05/10 04:56:20;;;;;;;22.20;13.90;;;16.00;99.90;;;;;;7345743;19;112389;-90
2022/05/10 04:58:48;;;;;;;22.77;14.07;;;16.00;99.90;;;;;;7345743;19;112084;-90
2022/05/10 05:01:17;;;;;;;20.80;13.80;;;16.00;99.90;;;;;;7343424;19;111976;-91
2022/05/10 05:03:46;;;;;;;23.92;13.40;;;16.00;99.90;;;;;;7343414;19;113014;-91
2022/05/10 05:06:14;;;;;;;18.17;13.40;;;16.00;99.90;;;;;;7344071;19;110070;-91
2022/05/10 05:08:41;;;;;;;25.83;13.65;;;16.00;99.90;;;;;;7343210;19;111740;-90
2022/05/10 05:11:08;;;;;;;20.98;14.15;;;16.10;99.90;;;;;;7350015;19;111702;-90
2022/05/10 05:13:36;;;;;;;19.88;14.02;;;16.10;99.90;;;;;;7342838;19;110766;-91
2022/05/10 05:16:04;;;;;;;20.40;13.10;;;16.10;99.90;;;;;;7339088;19;110991;-92
2022/05/10 05:18:31;;;;;;;20.20;12.85;;;16.10;99.90;;;;;;7343313;19;110442;-94
2022/05/10 05:20:58;;;;;;;20.58;13.07;;;16.10;99.90;;;;;;7346294;19;111432;-92
2022/05/10 05:23:25;;;;;;;18.40;13.45;;;16.20;99.90;;;;;;7349678;19;113429;-93
2022/05/10 05:25:53;;;;;;;19.65;12.30;;;16.20;99.90;;;;;;7346328;19;110388;-93
2022/05/10 05:28:20;;;;;;;17.48;13.18;;;16.30;99.90;;;;;;7348254;19;111498;-94
2022/05/10 05:30:49;;;;;;;21.75;12.57;;;16.30;99.90;;;;;;7345040;19;111889;-92
2022/05/10 05:33:17;;;;;;;24.63;13.25;;;16.30;99.90;;;;;;7351372;19;111730;-93
2022/05/10 05:35:44;;;;;;;18.83;12.07;;;16.40;99.90;;;;;;7346043;19;111776;-93
2022/05/10 05:38:11;;;;;;;18.60;11.73;;;16.50;99.90;;;;;;7346608;19;110627;-93
2022/05/10 05:40:38;;;;;;;16.85;12.00;;;16.60;99.90;;;;;;7346689;19;111481;-94
2022/05/10 05:43:07;;;;;;;15.10;11.43;;;16.80;99.90;;;;;;7347522;19;112420;-93
2022/05/10 05:45:34;;;;;;;14.25;10.65;;;16.90;99.90;;;;;;7346478;19;110855;-92
2022/05/10 05:48:01;;;;;;;15.63;10.43;;;17.00;99.90;;;;;;7346860;19;110893;-92
2022/05/10 05:50:30;;;;;;;16.90;10.23;;;17.10;99.90;;;;;;7342630;19;112471;-93
2022/05/10 05:52:58;;;;;;;13.13;10.23;;;17.20;99.90;;;;;;7345444;19;111362;-90
2022/05/10 05:55:25;;;;;;;13.57;10.38;;;17.30;99.90;;;;;;7349172;19;111406;-93
2022/05/10 05:57:52;;;;;;;18.80;9.93;;;17.40;99.90;;;;;;7346812;19;110316;-93
2022/05/10 06:00:22;;;;;;;16.60;10.00;;;17.60;99.90;;;;;;7348144;19;114005;-92
2022/05/10 06:02:50;;;;;;;15.45;9.70;;;17.70;99.90;;;;;;7342791;19;111923;-92
2022/05/10 06:05:19;;;;;;;14.13;10.02;;;17.80;99.90;;;;;;7346108;19;109139;-93
2022/05/10 06:07:46;;;;;;;10.73;9.50;;;17.90;99.90;;;;;;7346259;19;111630;-92
2022/05/10 06:10:14;;;;;;;13.25;8.98;;;18.00;99.90;;;;;;7346238;19;107504;-92
2022/05/10 06:12:42;;;;;;;12.93;9.45;;;18.10;99.90;;;;;;7347997;19;108762;-92
2022/05/10 06:15:13;;;;;;;10.93;8.70;;;18.20;99.90;;;;;;7347780;19;108109;-87
2022/05/10 06:17:42;;;;;;;12.35;8.80;;;18.30;99.90;;;;;;7339447;19;109499;-87
2022/05/10 06:20:11;;;;;;;12.02;9.15;;;18.40;99.90;;;;;;7340262;19;108423;-88
2022/05/10 06:22:43;;;;;;;9.25;7.93;;;18.50;99.90;;;;;;7341574;19;108001;-87
2022/05/10 06:25:15;;;;;;;10.85;9.00;;;18.60;99.90;;;;;;7340387;19;108530;-87
2022/05/10 06:27:42;;;;;;;17.90;7.75;;;18.70;99.90;;;;;;7337950;19;107966;-86
2022/05/10 06:30:10;;;;;;;12.98;7.63;;;18.80;99.90;;;;;;7338049;19;108752;-86
2022/05/10 06:32:37;;;;;;;12.90;7.65;;;18.90;99.90;;;;;;7341188;19;112165;-87
2022/05/10 06:35:04;;;;;;;11.35;7.60;;;19.00;99.90;;;;;;7341062;19;107404;-88
2022/05/10 06:40:19;;;;;;;11.60;7.07;;;19.20;99.90;;;;;;7344002;19;107926;-86
2022/05/10 06:42:47;;;;;;;11.65;6.80;;;19.30;99.90;;;;;;7342492;19;108313;-87
2022/05/10 06:45:16;;;;;;;14.40;6.82;;;19.40;99.90;;;;;;7342165;19;109253;-87
2022/05/10 06:47:52;;;;;;;9.55;6.68;;;19.60;99.90;;;;;;7341427;19;107253;-88
2022/05/10 06:50:21;;;;;;;8.95;5.63;;;19.60;99.90;;;;;;7340792;19;107321;-87
2022/05/10 06:52:54;;;;;;;9.93;5.50;;;19.80;99.90;;;;;;7340492;19;109728;-86
2022/05/10 06:55:23;;;;;;;7.45;5.15;;;19.90;99.80;;;;;;7339632;19;109170;-88
2022/05/10 06:57:51;;;;;;;10.43;5.57;;;20.00;99.70;;;;;;7330115;19;111984;-87
2022/05/10 07:00:19;;;;;;;7.50;5.43;;;20.10;99.50;;;;;;7343298;19;108791;-88
2022/05/10 07:02:46;;;;;;;12.20;5.65;;;20.20;99.20;;;;;;7342027;19;107479;-87
2022/05/10 07:05:15;;;;;;;10.38;4.82;;;20.30;99.00;;;;;;7338707;19;111772;-87
2022/05/10 07:07:42;;;;;;;7.75;4.95;;;20.40;98.90;;;;;;7342099;19;106964;-88
2022/05/10 07:10:11;;;;;;;10.02;5.10;;;20.50;98.70;;;;;;7340804;19;108184;-88
2022/05/10 07:12:40;;;;;;;10.73;5.43;;;20.50;98.60;;;;;;7338989;19;108971;-89
2022/05/10 07:15:18;;;;;;;7.72;4.75;;;20.70;98.50;;;;;;7338560;19;108432;-87
2022/05/10 07:17:46;;;;;;;7.22;5.20;;;20.80;98.40;;;;;;7337570;19;108172;-87
2022/05/10 07:20:17;;;;;;;11.25;5.22;;;20.80;98.30;;;;;;7340924;19;108454;-88
2022/05/10 07:22:45;;;;;;;7.63;5.03;;;20.90;98.20;;;;;;7344632;19;108010;-87
2022/05/10 07:25:15;;;;;;;9.10;5.18;;;21.00;98.10;;;;;;7340131;19;110510;-88
2022/05/10 07:27:44;;;;;;;6.30;5.20;;;21.00;98.00;;;;;;7339259;19;108006;-87
2022/05/10 07:30:13;;;;;;;11.63;4.97;;;21.10;98.00;;;;;;7338061;19;111751;-86
2022/05/10 07:32:41;;;;;;;6.47;4.75;;;21.10;97.80;;;;;;7338778;19;111807;-86
2022/05/10 07:35:09;;;;;;;5.07;4.38;;;21.20;97.60;;;;;;7339135;19;107260;-86
2022/05/10 07:37:38;;;;;;;9.40;4.50;;;21.30;97.40;;;;;;7338788;19;108069;-87
2022/05/10 07:40:08;;;;;;;9.45;4.60;;;21.40;97.20;;;;;;7340479;19;110532;-88
2022/05/10 07:42:36;;;;;;;8.15;4.15;;;21.40;97.00;;;;;;7339988;19;108029;-88
2022/05/10 07:45:05;;;;;;;10.00;5.22;;;21.50;97.10;;;;;;7343878;19;109406;-86
2022/05/10 07:47:33;;;;;;;6.43;4.57;;;21.50;96.80;;;;;;7342259;19;107600;-88
2022/05/10 07:50:00;;;;;;;7.53;4.57;;;21.60;96.80;;;;;;7345990;19;107717;-88
2022/05/10 07:52:27;;;;;;;7.65;4.63;;;21.60;96.60;;;;;;7344024;19;111533;-87
2022/05/10 07:54:54;;;;;;;10.52;4.72;;;21.60;96.40;;;;;;7346822;19;107454;-89
2022/05/10 07:57:21;;;;;;;9.05;4.05;;;21.70;96.30;;;;;;7347289;19;107977;-87
2022/05/10 07:59:49;;;;;;;8.63;4.65;;;21.70;96.20;;;;;;7348452;19;109023;-87
2022/05/10 08:02:19;;;;;;;6.95;4.93;;;21.80;96.00;;;;;;7346655;19;108017;-87
2022/05/10 08:04:46;;;;;;;9.77;4.20;;;21.80;95.90;;;;;;7348311;19;111691;-85
2022/05/10 08:07:13;;;;;;;5.45;4.50;;;21.80;95.80;;;;;;7352602;19;108907;-86
2022/05/10 08:09:40;;;;;;;5.28;4.22;;;21.90;95.70;;;;;;7346463;19;107589;-86
2022/05/10 08:12:08;;;;;;;9.88;4.68;;;21.90;95.50;;;;;;7345594;19;111785;-86
2022/05/10 08:14:39;;;;;;;8.93;4.78;;;21.90;95.60;;;;;;7343624;19;110444;-84
2022/05/10 08:17:06;;;;;;;7.88;4.55;;;22.00;95.60;;;;;;7342095;19;111054;-85
2022/05/10 08:19:34;;;;;;;6.50;4.75;;;22.10;95.60;;;;;;7343703;19;108852;-87
2022/05/10 08:22:02;;;;;;;8.18;4.43;;;22.10;95.70;;;;;;7344671;19;111509;-85
2022/05/10 08:24:29;;;;;;;10.05;4.35;;;22.20;95.50;;;;;;7342879;19;108664;-85
2022/05/10 08:26:56;;;;;;;8.48;4.72;;;22.20;95.30;;;;;;7349777;19;110500;-85
2022/05/10 08:29:23;;;;;;;14.75;4.53;;;22.20;95.50;;;;;;7344528;19;108147;-85
2022/05/10 08:31:50;;;;;;;7.82;4.70;;;22.20;95.30;;;;;;7344840;19;108463;-85
2022/05/10 08:34:19;;;;;;;5.75;4.32;;;22.30;95.40;;;;;;7346703;19;108360;-86
2022/05/10 08:36:52;;;;;;;8.23;4.00;;;22.40;95.60;;;;;;7343970;19;111474;-84
2022/05/10 08:39:21;;;;;;;8.18;4.65;;;22.40;95.40;;;;;;7345897;19;107979;-85
2022/05/10 08:41:57;;;;;;;6.60;4.60;;;22.50;95.40;;;;;;7344356;19;107625;-85
2022/05/10 08:44:27;;;;;;;8.90;3.97;;;22.60;95.20;;;;;;7345236;19;109106;-85
2022/05/10 08:47:03;;;;;;;5.97;4.45;;;22.70;95.00;;;;;;7344324;19;109195;-84
2022/05/10 08:49:45;;;;;;;6.80;4.13;;;22.80;94.70;;;;;;7350972;19;108257;-85
2022/05/10 08:52:14;;;;;;;11.38;4.28;;;22.90;94.40;;;;;;7341402;19;109000;-86
2022/05/10 08:54:43;;;;;;;7.18;4.00;;;22.90;94.40;;;;;;7345775;19;107907;-86
2022/05/10 08:57:48;;;;;;;8.45;3.95;;;22.90;94.50;;;;;;7346131;19;107833;-84
2022/05/10 09:00:40;;;;;;;7.18;3.78;;;22.90;94.30;;;;;;7343432;19;109178;-85
2022/05/10 09:03:33;;;;;;;6.75;4.03;;;23.10;94.60;;;;;;7343322;19;111664;-85
2022/05/10 09:06:25;;;;;;;11.13;3.67;;;23.30;94.60;;;;;;7342926;19;108499;-85
2022/05/10 09:08:59;;;;;;;5.75;3.63;;;23.60;94.70;;;;;;7343952;19;108700;-84
2022/05/10 09:11:52;;;;;;;18.08;3.40;;;24.00;93.90;;;;;;7344634;19;110541;-85
2022/05/10 09:14:29;;;;;;;10.18;3.70;;;24.10;92.50;;;;;;7349621;19;107986;-86
2022/05/10 09:16:56;;;;;;;8.07;3.90;;;24.10;92.30;;;;;;7344783;19;110626;-86
2022/05/10 09:19:33;;;;;;;12.00;3.67;;;24.10;92.40;;;;;;7343790;19;108622;-86
2022/05/10 09:22:07;;;;;;;10.05;3.28;;;24.20;92.50;;;;;;7342799;19;108989;-85
2022/05/10 09:24:48;;;;;;;7.28;3.70;;;24.30;92.30;;;;;;7342396;19;108365;-85
2022/05/10 09:27:18;;;;;;;6.30;3.40;;;24.50;92.40;;;;;;7343342;19;108300;-85
2022/05/10 09:29:49;;;;;;;9.95;3.42;;;24.70;92.40;;;;;;7344983;19;108882;-85
2022/05/10 09:35:11;;;;;;;12.52;3.25;;;25.00;91.70;;;;;;7344658;19;108139;-87
2022/05/10 09:37:47;;;;;;;6.95;3.17;;;25.20;90.80;;;;;;7347346;19;108945;-89
2022/05/10 09:40:17;;;;;;;14.75;3.50;;;25.20;90.40;;;;;;7342775;19;108162;-86
2022/05/10 09:42:49;;;;;;;9.48;3.47;;;25.20;90.00;;;;;;7342623;19;107873;-89
2022/05/10 09:45:21;;;;;;;5.57;3.00;;;25.20;90.40;;;;;;7343020;19;108248;-87
2022/05/10 09:48:13;;;;;;;10.50;3.00;;;25.30;90.20;;;;;;7342976;19;107919;-86
2022/05/10 09:50:44;;;;;;;10.85;3.22;;;25.50;89.00;;;;;;7340584;19;111543;-86
2022/05/10 09:53:32;;;;;;;7.28;2.80;;;25.50;89.90;;;;;;7344233;19;108257;-84
2022/05/10 09:56:26;;;;;;;13.80;3.08;;;25.80;90.00;;;;;;7344427;19;108242;-86
2022/05/10 09:59:22;;;;;;;8.20;2.97;;;25.80;88.30;;;;;;7342206;19;111938;-85
2022/05/10 10:01:56;;;;;;;4.55;2.70;;;25.80;87.90;;;;;;7345849;19;108544;-86
2022/05/10 10:04:37;;;;;;;9.13;3.83;;;25.90;87.60;;;;;;7344440;19;109214;-86
2022/05/10 10:07:18;;;;;;;8.25;2.97;;;25.90;87.90;;;;;;7344702;19;108040;-86
2022/05/10 10:09:47;;;;;;;45.28;4.20;;;25.80;86.40;;;;;;7343479;19;108970;-86
2022/05/10 10:12:36;;;;;;;13.23;3.58;;;25.90;82.10;;;;;;7339456;19;108088;-87
2022/05/10 10:15:17;;;;;;;18.58;3.38;;;25.80;83.00;;;;;;7339710;19;110811;-86
2022/05/10 10:17:58;;;;;;;19.13;3.88;;;25.90;81.80;;;;;;7343727;19;108124;-86
2022/05/10 10:20:38;;;;;;;34.25;3.90;;;25.80;83.00;;;;;;7341739;19;110441;-85
2022/05/10 10:23:19;;;;;;;28.83;3.58;;;26.00;81.40;;;;;;7342370;19;107999;-88
2022/05/10 10:25:49;;;;;;;23.05;3.63;;;26.00;80.30;;;;;;7348544;19;108520;-84
2022/05/10 10:28:16;;;;;;;18.08;3.33;;;26.10;79.70;;;;;;7341268;19;108296;-86
2022/05/10 10:30:55;;;;;;;28.92;3.88;;;26.30;79.50;;;;;;7341458;19;109429;-85
2022/05/10 10:33:37;;;;;;;17.77;3.40;;;26.40;79.20;;;;;;7341598;19;109212;-86
2022/05/10 10:36:25;;;;;;;9.75;3.33;;;26.50;78.20;;;;;;7341289;19;108060;-86
2022/05/10 10:39:17;;;;;;;44.83;4.35;;;26.60;78.90;;;;;;7343097;19;108261;-86
2022/05/10 10:41:53;;;;;;;15.77;3.55;;;26.70;77.00;;;;;;7342817;19;108968;-86
2022/05/10 10:44:23;;;;;;;30.87;3.27;;;26.70;77.00;;;;;;7341068;19;108244;-86
2022/05/10 10:47:20;;;;;;;11.98;3.25;;;26.80;75.60;;;;;;7344600;19;108573;-84
2022/05/10 10:50:12;;;;;;;15.00;3.67;;;26.80;77.00;;;;;;7343045;19;108394;-85
2022/05/10 10:52:47;;;;;;;11.32;2.97;;;26.60;76.60;;;;;;7339466;19;110110;-87
2022/05/10 10:55:18;;;;;;;7.65;3.08;;;26.60;75.30;;;;;;7338659;19;111301;-81
2022/05/10 10:58:27;;;;;;;19.83;3.60;;;26.40;76.40;;;;;;7339076;19;108086;-83
2022/05/10 11:01:20;;;;;;;8.80;3.10;;;26.30;76.80;;;;;;7341698;19;108565;-82
2022/05/10 11:04:05;;;;;;;6.15;2.72;;;26.30;77.20;;;;;;7338863;19;109103;-82
2022/05/10 11:06:58;;;;;;;16.30;2.83;;;26.30;78.60;;;;;;7340493;19;108189;-82
2022/05/10 11:09:45;;;;;;;17.77;3.00;;;26.40;78.80;;;;;;7341283;19;107704;-83
2022/05/10 11:12:21;;;;;;;35.85;3.50;;;26.50;77.90;;;;;;7343357;19;107939;-84
2022/05/10 11:15:17;;;;;;;12.37;2.97;;;26.70;76.60;;;;;;7338630;19;108179;-82
2022/05/10 11:17:48;;;;;;;21.42;3.40;;;26.80;76.50;;;;;;7338897;19;108972;-82
2022/05/10 11:20:39;;;;;;;13.30;3.20;;;26.90;75.80;;;;;;7339707;19;108190;-83
2022/05/10 11:23:10;;;;;;;10.82;3.47;;;26.80;74.90;;;;;;7340219;19;108255;-82
2022/05/10 11:26:19;;;;;;;12.00;2.90;;;26.70;76.20;;;;;;7341743;19;109745;-82
2022/05/10 11:29:05;;;;;;;;;;;26.70;75.40;;;;;;7339774;19;107910;-83
2022/05/10 11:31:58;;;;;;;12.32;3.33;;;26.70;76.90;;;;;;7342807;19;107848;-83
2022/05/10 11:34:55;;;;;;;21.17;3.22;;;26.80;76.00;;;;;;7341169;19;109160;-83
2022/05/10 11:37:30;;;;;;;22.23;3.58;;;26.90;73.40;;;;;;7347012;19;108221;-83
2022/05/10 11:39:57;;;;;;;23.35;3.22;;;26.70;73.10;;;;;;7341333;19;108910;-83
2022/05/10 11:42:32;;;;;;;17.40;3.03;;;26.60;73.60;;;;;;7339873;19;107228;-83
2022/05/10 11:45:31;;;;;;;12.30;3.00;;;26.60;73.10;;;;;;7340867;19;108236;-83
2022/05/10 11:48:03;;;;;;;;;;;26.50;73.80;;;;;;7340006;19;109752;-82
2022/05/10 11:53:46;;;;;;;12.98;2.83;;;26.50;75.10;;;;;;7338747;19;107404;-81
2022/05/10 11:56:16;;;;;;;7.78;2.80;;;26.70;74.30;;;;;;7338841;19;110049;-83
2022/05/10 11:58:44;;;;;;;18.30;3.60;;;26.80;75.10;;;;;;7338367;19;107114;-84
2022/05/10 12:01:35;;;;;;;8.38;3.30;;;26.90;74.90;;;;;;7344222;19;108213;-83
2022/05/10 12:04:02;;;;;;;7.57;2.80;;;26.90;74.40;;;;;;7339817;19;109892;-83
2022/05/10 12:06:31;;;;;;;5.82;2.85;;;26.90;74.70;;;;;;7337658;19;107405;-84
2022/05/10 12:09:00;;;;;;;10.40;2.80;;;26.90;74.80;;;;;;7340444;19;108988;-83
2022/05/10 12:11:27;;;;;;;9.82;3.50;;;27.00;74.00;;;;;;7339045;19;107276;-84
2022/05/10 12:22:21;;;;;;;12.82;3.22;;;27.00;73.40;;;;;;7336872;19;108285;-81
2022/05/10 12:24:50;;;;;;;9.63;3.00;;;27.10;73.40;;;;;;7345232;19;109160;-83
2022/05/10 12:27:17;;;;;;;24.85;3.45;;;27.10;72.20;;;;;;7337067;19;108199;-82
2022/05/10 12:29:51;;;;;;;17.00;3.17;;;27.20;71.60;;;;;;7339070;19;108980;-83
2022/05/10 12:32:21;;;;;;;10.15;3.00;;;27.20;71.00;;;;;;7338838;19;107772;-83
2022/05/10 12:34:52;;;;;;;7.88;2.92;;;27.10;71.40;;;;;;7340634;19;109278;-83
2022/05/10 12:37:24;;;;;;;11.80;3.25;;;27.10;71.60;;;;;;7344810;19;109773;-83
2022/05/10 12:40:12;;;;;;;6.03;2.85;;;27.10;72.00;;;;;;7346970;19;108239;-83
2022/05/10 12:42:58;;;;;;;;;;;27.20;72.70;;;;;;7345466;19;110628;-84
2022/05/10 12:45:40;;;;;;;8.73;3.17;;;27.20;71.60;;;;;;7347826;19;108932;-85
2022/05/10 12:48:44;;;;;;;22.85;3.80;;;27.20;70.90;;;;;;7347782;19;107558;-83
2022/05/10 12:51:14;;;;;;;9.55;3.25;;;27.20;69.90;;;;;;7343045;19;109198;-83
2022/05/10 12:54:04;;;;;;;9.80;3.08;;;27.20;71.20;;;;;;7342783;19;108233;-84
2022/05/10 12:56:41;;;;;;;6.60;3.00;;;27.30;70.90;;;;;;7345198;19;108039;-83
2022/05/10 12:59:22;;;;;;;10.60;3.40;;;27.40;70.50;;;;;;7344398;19;109355;-82
2022/05/10 13:01:50;;;;;;;7.85;3.58;;;27.40;70.40;;;;;;7346353;19;108066;-83
2022/05/10 13:04:23;;;;;;;7.32;3.33;;;27.30;70.50;;;;;;7346306;19;108617;-83
2022/05/10 13:07:09;;;;;;;8.52;3.60;;;27.30;70.80;;;;;;7345815;19;108805;-83
2022/05/10 13:09:38;;;;;;;6.47;3.70;;;27.60;71.60;;;;;;7351069;19;107877;-82
2022/05/10 13:12:13;;;;;;;8.20;3.35;;;27.70;70.80;;;;;;7343269;19;109272;-84
2022/05/10 13:14:44;;;;;;;7.25;3.22;;;27.90;71.10;;;;;;7342900;19;107964;-82
2022/05/10 13:17:19;;;;;;;12.55;3.55;;;28.10;70.80;;;;;;7344947;19;109464;-83
2022/05/10 13:19:46;;;;;;;6.32;3.50;;;28.20;70.30;;;;;;7343356;19;109080;-83